Time;durP1;ratioP1;P1;durP2;ratioP2;P2;SDS_P1;SDS_P2;PMS_P1;PMS_P2;Temp;Humidity;BMP_temperature;BMP_pressure;BME280_temperature;BME280_humidity;BME280_pressure;Samples;Min_cycle;Max_cycle;Signal;HPM_P1;HPM_P2
2022/01/31 00:00:42;;;;;;;15.18;4.18;;;;;;;;;;4997933;28;20026;-84
2022/01/31 00:03:08;;;;;;;22.88;5.47;;;;;;;;;;5008819;28;20038;-84
2022/01/31 00:05:34;;;;;;;18.83;4.63;;;;;;;;;;4999654;28;20027;-83
2022/01/31 00:08:00;;;;;;;21.75;6.25;;;;;;;;;;5007072;28;20028;-84
2022/01/31 00:10:31;;;;;;;12.55;4.50;;;;;;;;;;5018324;28;20032;-83
2022/01/31 00:13:07;;;;;;;21.50;4.35;;;;;;;;;;5038148;28;20014;-86
2022/01/31 00:15:38;;;;;;;22.08;5.05;;;;;;;;;;5036201;28;20041;-84
2022/01/31 00:18:04;;;;;;;;;;;;;;;;;;5017409;28;20520;-84
2022/01/31 00:20:30;;;;;;;19.92;5.07;;;;;;;;;;5017318;28;19905;-85
2022/01/31 00:22:56;;;;;;;16.20;4.30;;;;;;;;;;5017311;28;20071;-84
2022/01/31 00:25:22;;;;;;;17.05;4.60;;;;;;;;;;5017475;28;20049;-85
2022/01/31 00:27:48;;;;;;;15.75;4.63;;;;;;;;;;5016124;28;20022;-84
2022/01/31 00:30:14;;;;;;;18.17;5.00;;;;;;;;;;5017747;28;20030;-84
2022/01/31 00:32:40;;;;;;;18.70;4.65;;;;;;;;;;5016936;28;20061;-84
2022/01/31 00:35:06;;;;;;;18.85;5.80;;;;;;;;;;5017533;28;20102;-84
2022/01/31 00:37:32;;;;;;;25.63;5.00;;;;;;;;;;5015962;28;20069;-84
2022/01/31 00:39:59;;;;;;;21.35;6.43;;;;;;;;;;5014723;28;20025;-84
2022/01/31 00:42:26;;;;;;;18.52;5.65;;;;;;;;;;5013809;28;20105;-84
2022/01/31 00:44:54;;;;;;;19.95;6.55;;;;;;;;;;5016449;28;20017;-84
2022/01/31 00:47:30;;;;;;;27.88;6.07;;;;;;;;;;5016944;28;20034;-84
2022/01/31 00:50:09;;;;;;;14.60;5.72;;;;;;;;;;5021043;28;20026;-84
2022/01/31 00:52:37;;;;;;;27.45;6.10;;;;;;;;;;5020618;28;20102;-83
2022/01/31 00:55:04;;;;;;;26.65;6.38;;;;;;;;;;5019999;28;20425;-84
2022/01/31 00:57:30;;;;;;;21.85;5.15;;;;;;;;;;5018811;28;20030;-84
2022/01/31 00:59:56;;;;;;;24.33;6.03;;;;;;;;;;5018697;28;20026;-83
2022/01/31 01:02:24;;;;;;;19.48;6.15;;;;;;;;;;5019454;28;20046;-83
2022/01/31 01:04:54;;;;;;;13.57;5.35;;;;;;;;;;5019860;28;20092;-84
2022/01/31 01:07:20;;;;;;;21.58;6.07;;;;;;;;;;5017595;28;20437;-84
2022/01/31 01:09:46;;;;;;;21.70;6.53;;;;;;;;;;5019956;28;20029;-84
2022/01/31 01:12:13;;;;;;;14.05;5.28;;;;;;;;;;5020057;28;20053;-84
2022/01/31 01:14:39;;;;;;;16.40;5.82;;;;;;;;;;5019710;28;20026;-84
2022/01/31 01:17:05;;;;;;;13.02;6.10;;;;;;;;;;5021134;28;20037;-84
2022/01/31 01:19:31;;;;;;;23.25;7.38;;;;;;;;;;5018679;28;20038;-84
2022/01/31 01:21:57;;;;;;;21.65;6.15;;;;;;;;;;5019777;28;20080;-85
2022/01/31 01:24:23;;;;;;;28.85;6.55;;;;;;;;;;5018542;28;20052;-84
2022/01/31 01:26:49;;;;;;;17.92;5.50;;;;;;;;;;5018945;28;20037;-83
2022/01/31 01:29:17;;;;;;;31.50;6.38;;;;;;;;;;5018431;28;20022;-84
2022/01/31 01:31:45;;;;;;;19.45;6.32;;;;;;;;;;5020982;28;20033;-83
2022/01/31 01:34:12;;;;;;;22.75;6.30;;;;;;;;;;5020667;28;20032;-84
2022/01/31 01:36:38;;;;;;;17.00;5.95;;;;;;;;;;5018968;28;20111;-83
2022/01/31 01:39:05;;;;;;;24.17;6.07;;;;;;;;;;5020209;28;20034;-83
2022/01/31 01:41:31;;;;;;;18.98;5.70;;;;;;;;;;5020012;28;20140;-84
2022/01/31 01:43:57;;;;;;;23.02;6.38;;;;;;;;;;5019244;28;20033;-84
2022/01/31 01:46:25;;;;;;;25.05;6.13;;;;;;;;;;5019465;28;20034;-83
2022/01/31 01:48:53;;;;;;;21.73;5.57;;;;;;;;;;5019518;28;20072;-84
2022/01/31 01:51:20;;;;;;;21.90;6.00;;;;;;;;;;5018147;28;20022;-83
2022/01/31 01:53:46;;;;;;;18.58;6.15;;;;;;;;;;5020826;28;20030;-84
2022/01/31 01:56:14;;;;;;;16.98;5.30;;;;;;;;;;5017276;28;20034;-83
2022/01/31 01:58:42;;;;;;;26.02;7.03;;;;;;;;;;5019327;28;20046;-84
2022/01/31 02:01:09;;;;;;;20.02;5.50;;;;;;;;;;5027134;28;20010;-85
2022/01/31 02:03:36;;;;;;;28.85;5.82;;;;;;;;;;5002529;28;20034;-84
2022/01/31 02:06:03;;;;;;;18.27;5.88;;;;;;;;;;4999430;28;20030;-84
2022/01/31 02:08:38;;;;;;;38.78;6.47;;;;;;;;;;4997715;28;20100;-84
2022/01/31 02:11:04;;;;;;;27.67;5.72;;;;;;;;;;5003271;28;20120;-83
2022/01/31 02:13:30;;;;;;;18.83;5.75;;;;;;;;;;5019337;28;20544;-84
2022/01/31 02:15:56;;;;;;;28.70;6.13;;;;;;;;;;5019571;28;20466;-84
2022/01/31 02:18:26;;;;;;;15.40;5.47;;;;;;;;;;5019698;28;20072;-85
2022/01/31 02:20:52;;;;;;;20.73;5.53;;;;;;;;;;5018664;28;20053;-84
2022/01/31 02:23:18;;;;;;;21.60;6.72;;;;;;;;;;5021785;28;20026;-84
2022/01/31 02:25:58;;;;;;;29.60;7.65;;;;;;;;;;5025892;28;20225;-84
2022/01/31 02:28:25;;;;;;;29.50;6.97;;;;;;;;;;5022654;28;20083;-84
2022/01/31 02:30:51;;;;;;;27.73;6.38;;;;;;;;;;5017193;28;20439;-84
2022/01/31 02:33:20;;;;;;;34.15;6.25;;;;;;;;;;5017542;28;20026;-84
2022/01/31 02:35:47;;;;;;;28.27;6.53;;;;;;;;;;5019035;28;20098;-84
2022/01/31 02:38:13;;;;;;;38.88;7.55;;;;;;;;;;5018321;28;20092;-85
2022/01/31 02:40:39;;;;;;;23.58;6.55;;;;;;;;;;5018543;28;20041;-84
2022/01/31 02:43:05;;;;;;;22.90;6.93;;;;;;;;;;5017241;28;20057;-84
2022/01/31 02:45:31;;;;;;;20.90;6.40;;;;;;;;;;5017775;28;20037;-83
2022/01/31 02:48:00;;;;;;;34.85;7.35;;;;;;;;;;5018367;28;20022;-84
2022/01/31 02:50:26;;;;;;;23.75;6.57;;;;;;;;;;5017450;28;20033;-83
2022/01/31 02:55:38;;;;;;;19.25;5.60;;;;;;;;;;5020085;28;20048;-85
2022/01/31 02:58:04;;;;;;;21.67;6.15;;;;;;;;;;5020151;28;20022;-83
2022/01/31 03:00:30;;;;;;;15.73;6.13;;;;;;;;;;5019759;28;20237;-84
2022/01/31 03:02:56;;;;;;;23.33;4.97;;;;;;;;;;5019556;28;20053;-84
2022/01/31 03:05:22;;;;;;;21.77;5.20;;;;;;;;;;5019006;28;20030;-84
2022/01/31 03:07:48;;;;;;;20.42;5.57;;;;;;;;;;5019401;28;20030;-85
2022/01/31 03:10:14;;;;;;;12.40;5.15;;;;;;;;;;5019321;28;20093;-85
2022/01/31 03:12:40;;;;;;;18.33;5.82;;;;;;;;;;5019792;28;20099;-84
2022/01/31 03:15:06;;;;;;;23.23;5.50;;;;;;;;;;5019210;28;20133;-85
2022/01/31 03:17:32;;;;;;;11.93;4.85;;;;;;;;;;5016021;28;20026;-85
2022/01/31 03:19:58;;;;;;;18.42;4.40;;;;;;;;;;5000343;28;20141;-84
2022/01/31 03:22:25;;;;;;;25.02;5.78;;;;;;;;;;5015811;28;20057;-86
2022/01/31 03:24:51;;;;;;;15.48;4.38;;;;;;;;;;5018850;28;20054;-87
2022/01/31 03:27:17;;;;;;;19.55;4.82;;;;;;;;;;5020178;28;20030;-85
2022/01/31 03:29:43;;;;;;;23.40;4.18;;;;;;;;;;5026011;28;20064;-84
2022/01/31 03:32:09;;;;;;;25.33;4.88;;;;;;;;;;5017199;28;20094;-85
2022/01/31 03:34:35;;;;;;;25.60;5.05;;;;;;;;;;5003295;28;20545;-84
2022/01/31 03:37:01;;;;;;;16.90;4.32;;;;;;;;;;5013932;28;20049;-86
2022/01/31 03:39:27;;;;;;;13.25;5.15;;;;;;;;;;5013592;28;20038;-85
2022/01/31 03:41:53;;;;;;;17.08;4.93;;;;;;;;;;5003732;28;20030;-84
2022/01/31 03:44:19;;;;;;;18.60;4.80;;;;;;;;;;5003805;28;20030;-84
2022/01/31 03:46:45;;;;;;;14.05;4.60;;;;;;;;;;5016776;28;20042;-84
2022/01/31 03:49:11;;;;;;;16.38;3.85;;;;;;;;;;5010578;28;20053;-85
2022/01/31 03:51:37;;;;;;;21.40;5.00;;;;;;;;;;5017706;28;20022;-85
2022/01/31 03:54:03;;;;;;;16.30;4.43;;;;;;;;;;5034701;28;20026;-85
2022/01/31 03:56:29;;;;;;;21.25;4.57;;;;;;;;;;5037968;28;20094;-86
2022/01/31 03:58:59;;;;;;;23.33;4.53;;;;;;;;;;5038260;28;20011;-87
2022/01/31 04:01:26;;;;;;;12.88;4.05;;;;;;;;;;5026263;28;20022;-87
2022/01/31 04:03:52;;;;;;;30.90;6.50;;;;;;;;;;5031987;28;20013;-88
2022/01/31 04:06:18;;;;;;;20.35;5.03;;;;;;;;;;5036204;28;20021;-87
2022/01/31 04:08:44;;;;;;;19.00;4.80;;;;;;;;;;5038845;28;20006;-87
2022/01/31 04:11:10;;;;;;;17.10;4.50;;;;;;;;;;5030931;28;20029;-89
2022/01/31 04:13:37;;;;;;;18.45;4.78;;;;;;;;;;5027773;28;20022;-89
2022/01/31 04:16:03;;;;;;;18.02;4.05;;;;;;;;;;5035868;28;20018;-88
2022/01/31 04:18:29;;;;;;;16.55;4.75;;;;;;;;;;5030260;28;20014;-89
2022/01/31 04:20:55;;;;;;;26.60;5.03;;;;;;;;;;5034825;28;20029;-88
2022/01/31 04:23:23;;;;;;;17.00;4.47;;;;;;;;;;5036180;28;20069;-88
2022/01/31 04:30:50;;;;;;;17.65;4.32;;;;;;;;;;5038756;28;20085;-87
2022/01/31 04:33:16;;;;;;;25.67;5.03;;;;;;;;;;5038982;28;20036;-86
2022/01/31 04:35:42;;;;;;;18.73;4.70;;;;;;;;;;5038171;28;20018;-86
2022/01/31 04:38:08;;;;;;;17.40;4.03;;;;;;;;;;5038088;28;20071;-87
2022/01/31 04:40:34;;;;;;;17.23;4.35;;;;;;;;;;5038219;28;20018;-88
2022/01/31 04:43:00;;;;;;;25.15;4.95;;;;;;;;;;5032196;28;20017;-88
2022/01/31 04:45:27;;;;;;;17.90;3.97;;;;;;;;;;5018952;28;20018;-87
2022/01/31 04:47:53;;;;;;;19.00;4.20;;;;;;;;;;5032712;28;20027;-86
2022/01/31 04:50:19;;;;;;;18.83;4.47;;;;;;;;;;5023692;28;20023;-87
2022/01/31 04:52:45;;;;;;;14.77;3.22;;;;;;;;;;5019580;28;20049;-86
2022/01/31 04:55:11;;;;;;;25.13;4.95;;;;;;;;;;5018371;28;20065;-88
2022/01/31 04:57:37;;;;;;;23.30;4.70;;;;;;;;;;5029620;28;20014;-87
2022/01/31 05:00:05;;;;;;;16.98;4.82;;;;;;;;;;5037525;28;20021;-87
2022/01/31 05:02:31;;;;;;;20.50;4.10;;;;;;;;;;5038381;28;20105;-87
2022/01/31 05:04:57;;;;;;;17.27;4.00;;;;;;;;;;5037810;28;20049;-88
2022/01/31 05:07:23;;;;;;;19.20;4.30;;;;;;;;;;5038126;28;20014;-86
2022/01/31 05:09:49;;;;;;;16.88;4.47;;;;;;;;;;5037218;28;20046;-90
2022/01/31 05:12:15;;;;;;;16.15;4.35;;;;;;;;;;5038617;28;20021;-88
2022/01/31 05:14:41;;;;;;;19.67;4.30;;;;;;;;;;5038361;28;20082;-87
2022/01/31 05:17:07;;;;;;;22.80;4.82;;;;;;;;;;5038344;28;20010;-87
2022/01/31 05:19:33;;;;;;;26.00;4.85;;;;;;;;;;5038280;28;20073;-86
2022/01/31 05:22:00;;;;;;;22.80;5.22;;;;;;;;;;5038064;28;20070;-88
2022/01/31 05:24:26;;;;;;;28.27;5.72;;;;;;;;;;5037531;28;20041;-86
2022/01/31 05:26:53;;;;;;;25.05;4.97;;;;;;;;;;5038075;28;20010;-87
2022/01/31 05:29:19;;;;;;;26.80;4.88;;;;;;;;;;5043857;28;20029;-87
2022/01/31 05:31:46;;;;;;;18.45;4.68;;;;;;;;;;5043077;28;20025;-84
2022/01/31 05:34:12;;;;;;;22.27;6.32;;;;;;;;;;5041902;28;20101;-85
2022/01/31 05:36:39;;;;;;;23.20;5.82;;;;;;;;;;5040547;28;20017;-85
2022/01/31 05:39:05;;;;;;;21.60;6.07;;;;;;;;;;5041747;28;20041;-85
2022/01/31 05:41:32;;;;;;;18.48;5.28;;;;;;;;;;5041905;28;20033;-84
2022/01/31 05:43:58;;;;;;;21.27;6.07;;;;;;;;;;5042072;28;20021;-84
2022/01/31 05:46:24;;;;;;;13.88;5.25;;;;;;;;;;5042137;28;20040;-86
2022/01/31 05:48:51;;;;;;;15.98;5.03;;;;;;;;;;5041697;28;20034;-84
2022/01/31 05:51:18;;;;;;;13.85;5.05;;;;;;;;;;5041791;28;20018;-85
2022/01/31 05:53:44;;;;;;;17.95;5.40;;;;;;;;;;5037724;28;20018;-85
2022/01/31 05:56:11;;;;;;;16.35;6.50;;;;;;;;;;5021909;28;20030;-86
2022/01/31 05:58:37;;;;;;;12.57;4.85;;;;;;;;;;5035861;28;20012;-85
2022/01/31 06:01:04;;;;;;;14.13;5.32;;;;;;;;;;5041698;28;20014;-85
2022/01/31 06:03:30;;;;;;;16.73;5.00;;;;;;;;;;5041854;28;20081;-85
2022/01/31 06:05:56;;;;;;;12.68;5.25;;;;;;;;;;5041534;28;20014;-84
2022/01/31 06:08:22;;;;;;;13.15;5.15;;;;;;;;;;5024079;28;20018;-86
2022/01/31 06:10:49;;;;;;;12.98;5.20;;;;;;;;;;5038303;28;20037;-85
2022/01/31 06:13:28;;;;;;;13.50;4.80;;;;;;;;;;5040882;28;20101;-85
2022/01/31 06:15:55;;;;;;;18.25;5.03;;;;;;;;;;5041366;28;20037;-84
2022/01/31 06:18:21;;;;;;;12.68;4.93;;;;;;;;;;5040380;28;20041;-85
2022/01/31 06:20:47;;;;;;;7.70;4.75;;;;;;;;;;5025327;28;20027;-84
2022/01/31 06:23:13;;;;;;;12.20;4.90;;;;;;;;;;5015073;28;20029;-84
2022/01/31 06:25:39;;;;;;;16.55;5.10;;;;;;;;;;5004161;28;20113;-83
2022/01/31 06:28:07;;;;;;;12.18;5.00;;;;;;;;;;5015845;28;20029;-83
2022/01/31 06:30:33;;;;;;;11.65;4.65;;;;;;;;;;5019548;28;20029;-85
2022/01/31 06:33:00;;;;;;;6.63;3.90;;;;;;;;;;5018798;28;20033;-84
2022/01/31 06:35:26;;;;;;;15.25;5.10;;;;;;;;;;5019269;28;20033;-84
2022/01/31 06:37:53;;;;;;;13.20;3.65;;;;;;;;;;5020555;28;20105;-84
2022/01/31 06:40:19;;;;;;;10.32;3.67;;;;;;;;;;5019765;28;20076;-84
2022/01/31 06:42:45;;;;;;;12.15;4.18;;;;;;;;;;5018721;28;20037;-84
2022/01/31 06:45:11;;;;;;;8.50;3.80;;;;;;;;;;5020174;28;20033;-85
2022/01/31 06:47:38;;;;;;;9.80;4.28;;;;;;;;;;5018786;28;20033;-85
2022/01/31 06:50:06;;;;;;;9.32;3.75;;;;;;;;;;5017638;28;20060;-85
2022/01/31 06:52:34;;;;;;;13.20;3.97;;;;;;;;;;5018167;28;20449;-84
2022/01/31 06:55:03;;;;;;;11.73;4.40;;;;;;;;;;5018401;28;20026;-85
2022/01/31 06:57:33;;;;;;;10.95;4.22;;;;;;;;;;5018669;28;20025;-84
2022/01/31 07:00:00;;;;;;;10.25;3.53;;;;;;;;;;5019476;28;20029;-85
2022/01/31 07:02:26;;;;;;;6.75;3.30;;;;;;;;;;5018189;28;20051;-85
2022/01/31 07:04:52;;;;;;;9.40;3.60;;;;;;;;;;5018547;28;20084;-85
2022/01/31 07:07:18;;;;;;;7.72;3.55;;;;;;;;;;5018265;28;20026;-85
2022/01/31 07:09:44;;;;;;;5.93;3.28;;;;;;;;;;5019598;28;20037;-84
2022/01/31 07:12:12;;;;;;;8.98;3.58;;;;;;;;;;5017455;28;20014;-86
2022/01/31 07:14:38;;;;;;;11.18;3.35;;;;;;;;;;5016077;28;20029;-87
2022/01/31 07:17:06;;;;;;;8.80;3.00;;;;;;;;;;5016073;28;20045;-86
2022/01/31 07:19:35;;;;;;;12.13;3.40;;;;;;;;;;4999165;28;20060;-85
2022/01/31 07:22:04;;;;;;;9.45;3.85;;;;;;;;;;4994223;28;20029;-85
2022/01/31 07:27:03;;;;;;;6.15;3.17;;;;;;;;;;4996409;28;20022;-84
2022/01/31 07:29:32;;;;;;;7.63;3.80;;;;;;;;;;4996534;28;20026;-84
2022/01/31 07:31:58;;;;;;;9.10;4.15;;;;;;;;;;4996743;28;20546;-85
2022/01/31 07:34:25;;;;;;;8.45;3.95;;;;;;;;;;4996375;28;20026;-84
2022/01/31 07:36:51;;;;;;;5.63;3.28;;;;;;;;;;4996282;28;20027;-85
2022/01/31 07:39:17;;;;;;;10.40;3.60;;;;;;;;;;5000776;28;20034;-84
2022/01/31 07:41:44;;;;;;;8.07;3.80;;;;;;;;;;5021516;28;20025;-84
2022/01/31 07:44:11;;;;;;;8.98;3.70;;;;;;;;;;5021985;28;20037;-83
2022/01/31 07:46:37;;;;;;;6.82;3.60;;;;;;;;;;5020972;28;20026;-84
2022/01/31 07:49:04;;;;;;;7.95;2.92;;;;;;;;;;5016306;28;20026;-84
2022/01/31 07:51:30;;;;;;;7.75;3.30;;;;;;;;;;5014979;28;20026;-84
2022/01/31 07:53:56;;;;;;;10.82;3.88;;;;;;;;;;5013970;28;20022;-85
2022/01/31 07:56:22;;;;;;;5.75;3.60;;;;;;;;;;5014357;28;20053;-83
2022/01/31 07:58:48;;;;;;;9.20;4.00;;;;;;;;;;5002734;28;20513;-84
2022/01/31 08:01:15;;;;;;;13.00;3.22;;;;;;;;;;5008082;28;20030;-85
2022/01/31 08:03:41;;;;;;;5.18;2.95;;;;;;;;;;5016681;28;20018;-86
2022/01/31 08:06:07;;;;;;;8.23;2.97;;;;;;;;;;5010001;28;20030;-85
2022/01/31 08:08:34;;;;;;;7.28;2.88;;;;;;;;;;5005637;28;20026;-84
2022/01/31 08:11:02;;;;;;;7.80;3.13;;;;;;;;;;5004598;28;20046;-84
2022/01/31 08:13:28;;;;;;;8.27;3.88;;;;;;;;;;5003983;28;20022;-85
2022/01/31 08:18:34;;;;;;;7.55;4.07;;;;;;;;;;5012451;28;20027;-84
2022/01/31 08:21:00;;;;;;;8.18;3.40;;;;;;;;;;5009031;28;20022;-84
2022/01/31 08:23:26;;;;;;;9.50;3.85;;;;;;;;;;5009413;28;20414;-85
2022/01/31 08:25:52;;;;;;;8.25;4.13;;;;;;;;;;5009584;28;20478;-85
2022/01/31 08:28:21;;;;;;;7.88;3.67;;;;;;;;;;5016959;28;20022;-85
2022/01/31 08:30:57;;;;;;;5.53;3.83;;;;;;;;;;5016922;28;20052;-87
2022/01/31 08:33:36;;;;;;;9.30;4.18;;;;;;;;;;5015024;28;20033;-84
2022/01/31 08:36:02;;;;;;;5.40;3.60;;;;;;;;;;5015521;28;20026;-85
2022/01/31 08:38:29;;;;;;;11.85;3.80;;;;;;;;;;5016583;28;20029;-86
2022/01/31 08:40:55;;;;;;;6.13;4.03;;;;;;;;;;5016948;28;20033;-85
2022/01/31 08:43:22;;;;;;;8.13;4.88;;;;;;;;;;5016989;28;20409;-83
2022/01/31 08:45:53;;;;;;;8.48;3.88;;;;;;;;;;5003708;28;20445;-84
2022/01/31 08:48:19;;;;;;;10.50;4.47;;;;;;;;;;4998582;28;20030;-83
2022/01/31 08:50:45;;;;;;;7.43;4.57;;;;;;;;;;4998457;28;20026;-84
2022/01/31 08:53:11;;;;;;;10.68;4.40;;;;;;;;;;5012959;28;20041;-83
2022/01/31 08:55:38;;;;;;;11.35;3.90;;;;;;;;;;5023351;28;20062;-83
2022/01/31 08:58:06;;;;;;;8.77;3.80;;;;;;;;;;5024265;28;20026;-85
2022/01/31 09:00:34;;;;;;;12.57;3.38;;;;;;;;;;5019902;28;20021;-84
2022/01/31 09:03:39;;;;;;;7.75;3.35;;;;;;;;;;5018613;28;20478;-83
2022/01/31 09:05:47;;;;;;;6.90;3.63;;;;;;;;;;5004714;28;20042;-83
2022/01/31 09:08:13;;;;;;;7.78;3.60;;;;;;;;;;5002555;28;20030;-84
2022/01/31 09:10:40;;;;;;;6.07;3.65;;;;;;;;;;5000058;28;20371;-84
2022/01/31 09:13:06;;;;;;;9.13;3.47;;;;;;;;;;5001167;28;20045;-83
2022/01/31 09:15:32;;;;;;;14.20;3.78;;;;;;;;;;5002406;28;20067;-84
2022/01/31 09:17:58;;;;;;;12.65;3.58;;;;;;;;;;5015767;28;20029;-84
2022/01/31 09:20:24;;;;;;;9.93;3.67;;;;;;;;;;4999383;28;20022;-83
2022/01/31 09:22:50;;;;;;;7.85;3.40;;;;;;;;;;4998426;28;20022;-83
2022/01/31 09:25:16;;;;;;;7.82;3.35;;;;;;;;;;4995500;28;20466;-85
2022/01/31 09:27:42;;;;;;;11.15;3.67;;;;;;;;;;4995062;28;20030;-85
2022/01/31 09:30:13;;;;;;;8.73;3.28;;;;;;;;;;4995167;28;20038;-85
2022/01/31 09:32:39;;;;;;;7.57;3.20;;;;;;;;;;4995048;28;20090;-83
2022/01/31 09:35:05;;;;;;;8.15;3.20;;;;;;;;;;4998571;28;20386;-82
2022/01/31 09:37:31;;;;;;;11.55;3.33;;;;;;;;;;5001757;28;20022;-83
2022/01/31 09:40:03;;;;;;;17.80;4.32;;;;;;;;;;5016664;28;20029;-83
2022/01/31 09:43:01;;;;;;;7.60;2.50;;;;;;;;;;5006199;28;20045;-83
2022/01/31 09:45:23;;;;;;;11.02;2.97;;;;;;;;;;5005389;28;20133;-83
2022/01/31 09:50:28;;;;;;;7.20;3.13;;;;;;;;;;5007297;28;20026;-83
2022/01/31 09:52:54;;;;;;;11.00;3.35;;;;;;;;;;5022790;28;20018;-85
2022/01/31 09:55:21;;;;;;;8.77;3.15;;;;;;;;;;5014467;28;20029;-85
2022/01/31 09:57:49;;;;;;;12.60;3.13;;;;;;;;;;5014280;28;20034;-84
2022/01/31 10:00:15;;;;;;;9.65;2.75;;;;;;;;;;5029285;28;20041;-88
2022/01/31 10:03:01;;;;;;;10.88;3.22;;;;;;;;;;5015824;28;20037;-86
2022/01/31 10:05:28;;;;;;;6.75;2.30;;;;;;;;;;5012318;28;20478;-83
2022/01/31 10:07:54;;;;;;;6.72;2.67;;;;;;;;;;5008121;28;20034;-82
2022/01/31 10:10:23;;;;;;;6.90;2.60;;;;;;;;;;5010639;28;20027;-83
2022/01/31 10:18:08;;;;;;;8.02;2.28;;;;;;;;;;5014661;28;20033;-84
2022/01/31 10:20:38;;;;;;;6.82;2.80;;;;;;;;;;5000366;28;20367;-84
2022/01/31 10:23:08;;;;;;;12.23;2.47;;;;;;;;;;5007379;28;20033;-84
2022/01/31 10:25:34;;;;;;;8.20;2.47;;;;;;;;;;4998598;28;20026;-84
2022/01/31 10:28:01;;;;;;;7.80;2.25;;;;;;;;;;5001273;28;20427;-83
2022/01/31 10:30:29;;;;;;;4.80;1.77;;;;;;;;;;5014862;28;20037;-84
2022/01/31 10:32:57;;;;;;;3.72;1.63;;;;;;;;;;5027406;28;20022;-83
2022/01/31 10:35:24;;;;;;;6.63;1.77;;;;;;;;;;5009234;28;20022;-86
2022/01/31 10:37:55;;;;;;;5.18;1.83;;;;;;;;;;5015952;28;20026;-86
2022/01/31 10:46:08;;;;;;;8.48;1.83;;;;;;;;;;5016483;28;20041;-87
2022/01/31 10:54:07;;;;;;;10.48;1.63;;;;;;;;;;5017752;28;20113;-83
2022/01/31 10:56:48;;;;;;;12.80;2.05;;;;;;;;;;5015087;28;20106;-84
2022/01/31 10:59:33;;;;;;;9.45;2.03;;;;;;;;;;5015339;28;20022;-84
2022/01/31 11:02:00;;;;;;;8.38;2.17;;;;;;;;;;5016894;28;20028;-84
2022/01/31 11:04:30;;;;;;;9.90;2.85;;;;;;;;;;5016708;28;20061;-84
2022/01/31 11:07:00;;;;;;;4.47;1.50;;;;;;;;;;5017490;28;20482;-85
2022/01/31 11:09:26;;;;;;;4.45;1.40;;;;;;;;;;5017657;28;20106;-84
2022/01/31 11:11:52;;;;;;;4.43;1.40;;;;;;;;;;5016120;28;20073;-83
2022/01/31 11:14:20;;;;;;;10.90;2.28;;;;;;;;;;5016973;28;20113;-84
2022/01/31 11:16:47;;;;;;;4.28;1.60;;;;;;;;;;5017025;28;20030;-84
2022/01/31 13:00:14;;;;;;;5.13;2.72;;;;;;;;;;4995877;28;20029;-84
2022/01/31 13:02:50;;;;;;;4.45;1.77;;;;;;;;;;4996580;28;20027;-83
2022/01/31 13:05:16;;;;;;;12.45;2.90;;;;;;;;;;4997552;28;20401;-83
2022/01/31 13:07:42;;;;;;;6.00;2.15;;;;;;;;;;4995732;28;20379;-83
2022/01/31 13:10:09;;;;;;;7.45;2.22;;;;;;;;;;4996943;28;20034;-84
2022/01/31 13:12:36;;;;;;;3.72;1.40;;;;;;;;;;4995960;28;20082;-84
2022/01/31 13:15:03;;;;;;;8.50;1.50;;;;;;;;;;4997101;28;20026;-83
2022/01/31 13:17:29;;;;;;;5.90;1.95;;;;;;;;;;5013266;28;20079;-84
2022/01/31 13:19:56;;;;;;;8.52;2.20;;;;;;;;;;4995644;28;20030;-83
2022/01/31 13:22:32;;;;;;;11.93;2.72;;;;;;;;;;4996294;28;20037;-83
2022/01/31 13:25:03;;;;;;;8.98;1.92;;;;;;;;;;4997179;28;20033;-83
2022/01/31 13:27:33;;;;;;;11.57;1.88;;;;;;;;;;4997646;28;20045;-84
2022/01/31 13:29:59;;;;;;;8.73;2.17;;;;;;;;;;4995704;28;20049;-83
2022/01/31 13:32:29;;;;;;;12.90;2.35;;;;;;;;;;4995879;28;20027;-83
2022/01/31 13:35:00;;;;;;;9.57;1.83;;;;;;;;;;4997139;28;20084;-84
2022/01/31 13:37:43;;;;;;;11.43;1.92;;;;;;;;;;4994736;28;20290;-84
2022/01/31 13:40:10;;;;;;;11.73;2.63;;;;;;;;;;4996758;28;20034;-84
2022/01/31 13:42:41;;;;;;;10.98;2.97;;;;;;;;;;5000414;28;20037;-83
2022/01/31 13:45:06;;;;;;;;;;;;;;;;;;5000475;28;20402;-84
2022/01/31 13:47:51;;;;;;;7.25;1.92;;;;;;;;;;5004527;28;19894;-84
2022/01/31 13:50:18;;;;;;;4.32;1.55;;;;;;;;;;5004352;28;20024;-84
2022/01/31 13:53:01;;;;;;;10.82;3.17;;;;;;;;;;5002932;28;20395;-84
2022/01/31 13:55:28;;;;;;;15.00;2.03;;;;;;;;;;5001371;28;20041;-84
2022/01/31 13:57:55;;;;;;;11.43;1.95;;;;;;;;;;5002742;28;20019;-84
2022/01/31 14:00:23;;;;;;;8.48;1.88;;;;;;;;;;5002709;28;20030;-83
2022/01/31 14:03:08;;;;;;;11.13;2.17;;;;;;;;;;5003500;28;20026;-84
2022/01/31 14:05:41;;;;;;;11.70;2.60;;;;;;;;;;5003764;28;20573;-84
2022/01/31 14:08:08;;;;;;;8.85;2.80;;;;;;;;;;5003330;28;20026;-83
2022/01/31 14:10:35;;;;;;;9.82;2.67;;;;;;;;;;5004444;28;20030;-85
2022/01/31 14:13:03;;;;;;;7.53;2.30;;;;;;;;;;5003011;28;20019;-85
2022/01/31 14:15:29;;;;;;;8.73;1.70;;;;;;;;;;5005112;28;20030;-85
2022/01/31 14:17:56;;;;;;;10.40;1.83;;;;;;;;;;5019100;28;20057;-86
2022/01/31 14:20:24;;;;;;;6.88;1.77;;;;;;;;;;5005812;28;20039;-83
2022/01/31 14:23:02;;;;;;;17.50;2.75;;;;;;;;;;5005898;28;20030;-85
2022/01/31 14:25:55;;;;;;;10.70;2.60;;;;;;;;;;5004326;28;20050;-85
2022/01/31 14:28:20;;;;;;;12.00;2.97;;;;;;;;;;5001808;28;20042;-84
2022/01/31 14:30:46;;;;;;;13.35;3.22;;;;;;;;;;5001946;28;20041;-85
2022/01/31 14:33:13;;;;;;;9.50;2.78;;;;;;;;;;5003956;28;20034;-84
2022/01/31 14:35:39;;;;;;;8.35;1.50;;;;;;;;;;5002244;28;20112;-83
2022/01/31 14:38:16;;;;;;;6.40;1.50;;;;;;;;;;5002556;28;20046;-82
2022/01/31 14:41:06;;;;;;;12.77;2.10;;;;;;;;;;4999379;28;20486;-84
2022/01/31 14:49:08;;;;;;;12.02;2.38;;;;;;;;;;5000507;28;20045;-83
2022/01/31 14:51:35;;;;;;;6.00;1.65;;;;;;;;;;4999160;28;20052;-83
2022/01/31 14:54:02;;;;;;;13.85;2.38;;;;;;;;;;5000350;28;20102;-82
2022/01/31 14:56:30;;;;;;;10.82;1.92;;;;;;;;;;5000567;28;20062;-83
2022/01/31 14:58:56;;;;;;;10.27;2.72;;;;;;;;;;5000095;28;20023;-84
2022/01/31 15:01:22;;;;;;;8.32;2.10;;;;;;;;;;4998433;28;20034;-84
2022/01/31 15:03:50;;;;;;;10.35;2.35;;;;;;;;;;4999722;28;20031;-84
2022/01/31 15:06:16;;;;;;;10.20;3.45;;;;;;;;;;4999394;28;20030;-83
2022/01/31 15:08:42;;;;;;;7.32;2.35;;;;;;;;;;4997673;28;20096;-85
2022/01/31 15:11:09;;;;;;;13.40;2.40;;;;;;;;;;4996846;28;20034;-84
2022/01/31 15:13:36;;;;;;;8.43;2.60;;;;;;;;;;4996723;28;20030;-84
2022/01/31 15:16:06;;;;;;;9.02;2.42;;;;;;;;;;4999977;28;20022;-84
2022/01/31 15:18:32;;;;;;;10.55;2.95;;;;;;;;;;5009724;28;20026;-85
2022/01/31 15:21:01;;;;;;;10.48;2.72;;;;;;;;;;5013437;28;20030;-85
2022/01/31 15:23:34;;;;;;;6.80;2.15;;;;;;;;;;5017551;28;20033;-85
2022/01/31 15:26:00;;;;;;;11.70;2.22;;;;;;;;;;5017227;28;20440;-85
2022/01/31 15:28:26;;;;;;;8.63;2.67;;;;;;;;;;5011205;28;20026;-85
2022/01/31 15:30:52;;;;;;;14.25;2.78;;;;;;;;;;4997921;28;20030;-85
2022/01/31 15:33:18;;;;;;;12.18;2.67;;;;;;;;;;4999577;28;20098;-84
2022/01/31 15:35:45;;;;;;;10.15;3.08;;;;;;;;;;4999776;28;20026;-84
2022/01/31 15:38:12;;;;;;;12.70;3.65;;;;;;;;;;4998519;28;20053;-84
2022/01/31 15:40:38;;;;;;;12.73;3.70;;;;;;;;;;5008392;28;20021;-85
2022/01/31 15:43:05;;;;;;;12.25;2.22;;;;;;;;;;5017190;28;20049;-84
2022/01/31 15:45:34;;;;;;;12.90;2.88;;;;;;;;;;5019393;28;20007;-85
2022/01/31 15:48:00;;;;;;;12.25;2.70;;;;;;;;;;5005307;28;20030;-85
2022/01/31 15:50:26;;;;;;;19.45;3.33;;;;;;;;;;5000337;28;20125;-83
2022/01/31 15:52:53;;;;;;;12.68;2.10;;;;;;;;;;5002387;28;20033;-84
2022/01/31 15:55:19;;;;;;;16.27;2.35;;;;;;;;;;5002683;28;20018;-84
2022/01/31 15:57:47;;;;;;;10.00;2.05;;;;;;;;;;5002889;28;20027;-84
2022/01/31 16:00:17;;;;;;;12.85;2.15;;;;;;;;;;5028155;23;20021;-87
2022/01/31 16:02:46;;;;;;;10.02;2.55;;;;;;;;;;4998927;28;20026;-83
2022/01/31 16:05:13;;;;;;;10.20;2.53;;;;;;;;;;5007842;28;20026;-85
2022/01/31 16:07:39;;;;;;;10.23;2.97;;;;;;;;;;5006752;28;20473;-86
2022/01/31 16:10:05;;;;;;;14.00;2.53;;;;;;;;;;4996700;28;20042;-85
2022/01/31 16:12:32;;;;;;;17.17;1.83;;;;;;;;;;4988532;28;20029;-84
2022/01/31 16:14:58;;;;;;;6.65;1.80;;;;;;;;;;4987644;28;20051;-85
2022/01/31 16:17:25;;;;;;;6.45;1.52;;;;;;;;;;4990187;28;20026;-84
2022/01/31 16:19:51;;;;;;;7.32;1.85;;;;;;;;;;5007641;28;20041;-85
2022/01/31 16:22:17;;;;;;;19.90;2.83;;;;;;;;;;5016256;28;20010;-88
2022/01/31 16:24:43;;;;;;;12.50;2.67;;;;;;;;;;5011986;28;20061;-87
2022/01/31 16:27:09;;;;;;;14.45;3.00;;;;;;;;;;5004426;28;20023;-82
2022/01/31 16:29:50;;;;;;;9.95;2.45;;;;;;;;;;4996554;28;20037;-83
2022/01/31 16:32:16;;;;;;;;;;;;;;;;;;4985863;28;20031;-83
2022/01/31 16:34:42;;;;;;;8.23;1.65;;;;;;;;;;4993420;28;20293;-85
2022/01/31 16:37:08;;;;;;;10.18;2.20;;;;;;;;;;4991479;28;20053;-84
2022/01/31 16:39:34;;;;;;;7.85;2.03;;;;;;;;;;4984959;28;20034;-84
2022/01/31 16:42:00;;;;;;;4.80;1.50;;;;;;;;;;4985985;28;20546;-84
2022/01/31 16:44:26;;;;;;;10.90;2.05;;;;;;;;;;4986726;28;20058;-82
2022/01/31 16:46:52;;;;;;;7.35;2.00;;;;;;;;;;4984089;28;20042;-82
2022/01/31 16:49:19;;;;;;;7.63;1.95;;;;;;;;;;4988272;28;20113;-83
2022/01/31 16:51:48;;;;;;;7.05;2.03;;;;;;;;;;4993305;28;20105;-83
2022/01/31 16:54:14;;;;;;;15.35;2.40;;;;;;;;;;4985406;28;20034;-85
2022/01/31 16:56:40;;;;;;;10.57;1.88;;;;;;;;;;4985191;28;20022;-84